Time;durP1;ratioP1;P1;durP2;ratioP2;P2;SDS_P1;SDS_P2;PMS_P1;PMS_P2;Temp;Humidity;BMP_temperature;BMP_pressure;BME280_temperature;BME280_humidity;BME280_pressure;Samples;Min_cycle;Max_cycle;Signal;HPM_P1;HPM_P2
2023/02/28 00:01:31;;;;;;;20.20;7.27;;;-1.30;1.00;;;;;;4391995;28;656714;-65
2023/02/28 00:04:18;;;;;;;19.23;7.90;;;-1.40;1.00;;;;;;4409849;28;657353;-65
2023/02/28 00:07:07;;;;;;;20.53;8.60;;;-1.40;1.00;;;;;;4391174;28;656567;-65
2023/02/28 00:09:54;;;;;;;18.53;8.57;;;-1.50;1.00;;;;;;4413273;28;656404;-65
2023/02/28 00:12:41;;;;;;;19.80;8.20;;;-1.50;1.00;;;;;;4391177;28;656478;-65
2023/02/28 00:15:28;;;;;;;17.70;7.83;;;-1.60;1.00;;;;;;4412052;28;656934;-65
2023/02/28 00:18:16;;;;;;;16.20;7.70;;;-1.70;1.00;;;;;;4396045;28;656588;-65
2023/02/28 00:21:03;;;;;;;32.13;10.47;;;-1.80;1.00;;;;;;4422004;28;657499;-65
2023/02/28 00:23:52;;;;;;;32.22;10.68;;;-1.90;1.00;;;;;;4390662;28;657894;-65
2023/02/28 00:26:39;;;;;;;30.83;11.70;;;-2.00;1.00;;;;;;4414572;28;657625;-65
2023/02/28 00:29:26;;;;;;;37.87;11.07;;;-2.10;1.00;;;;;;4369174;28;657990;-65
2023/02/28 00:32:13;;;;;;;29.67;10.73;;;-2.20;1.00;;;;;;4413163;28;658654;-65
2023/02/28 00:35:01;;;;;;;34.20;12.97;;;-2.20;1.00;;;;;;4400318;28;657944;-65
2023/02/28 00:37:48;;;;;;;34.40;12.13;;;-2.30;1.00;;;;;;4416288;28;658359;-65
2023/02/28 00:40:37;;;;;;;33.00;11.40;;;-2.40;1.00;;;;;;4395752;28;657944;-65
2023/02/28 00:43:24;;;;;;;29.23;11.13;;;-2.50;1.00;;;;;;4418808;28;657488;-65
2023/02/28 00:46:12;;;;;;;27.37;12.13;;;-2.60;1.00;;;;;;4398832;28;657148;-65
2023/02/28 00:48:59;;;;;;;26.37;10.17;;;-2.60;1.00;;;;;;4420026;28;657428;-65
2023/02/28 00:51:46;;;;;;;24.30;9.80;;;-2.70;1.00;;;;;;4373444;28;657416;-65
2023/02/28 00:54:33;;;;;;;23.67;9.35;;;-2.80;1.00;;;;;;4414730;28;657881;-65
2023/02/28 00:57:22;;;;;;;25.73;9.27;;;-2.80;1.00;;;;;;4393120;28;657421;-65
2023/02/28 01:00:10;;;;;;;28.47;9.40;;;-2.80;1.00;;;;;;4429452;28;656388;-65
2023/02/28 01:02:58;;;;;;;27.63;9.67;;;-2.90;1.00;;;;;;4393358;28;657333;-65
2023/02/28 01:05:45;;;;;;;29.63;10.57;;;-3.00;1.00;;;;;;4401873;28;656463;-65
2023/02/28 01:08:33;;;;;;;47.10;17.47;;;-3.10;1.00;;;;;;4414042;28;659106;-65
2023/02/28 01:11:20;;;;;;;37.20;15.20;;;-3.10;1.00;;;;;;4402653;28;657709;-65
2023/02/28 01:14:09;;;;;;;23.77;9.87;;;-3.10;1.00;;;;;;4413021;28;658216;-65
2023/02/28 01:16:56;;;;;;;26.17;10.60;;;-3.10;1.00;;;;;;4373799;28;656824;-65
2023/02/28 01:19:44;;;;;;;20.93;9.37;;;-3.20;1.00;;;;;;4389291;28;658806;-65
2023/02/28 01:22:31;;;;;;;25.30;9.80;;;-3.20;1.00;;;;;;4389580;28;656865;-65
2023/02/28 01:25:18;;;;;;;19.73;9.27;;;-3.20;1.00;;;;;;4419317;28;657501;-65
2023/02/28 01:28:06;;;;;;;24.23;10.00;;;-3.20;1.00;;;;;;4393029;28;656311;-65
2023/02/28 01:30:54;;;;;;;23.43;9.07;;;-3.30;1.00;;;;;;4415769;28;658508;-65
2023/02/28 01:33:41;;;;;;;25.73;10.30;;;-3.30;1.00;;;;;;4390416;28;657395;-65
2023/02/28 01:36:29;;;;;;;24.13;10.87;;;-3.30;1.00;;;;;;4409665;28;658233;-65
2023/02/28 01:39:16;;;;;;;24.73;10.68;;;-3.30;1.00;;;;;;4387740;28;657920;-65
2023/02/28 01:42:03;;;;;;;27.23;12.60;;;-3.30;1.00;;;;;;4412912;28;658705;-65
2023/02/28 01:45:03;;;;;;;22.47;10.60;;;-3.30;1.00;;;;;;4390107;28;657878;-65
2023/02/28 01:47:53;;;;;;;36.87;16.87;;;-3.20;1.00;;;;;;4376372;28;657740;-65
2023/02/28 01:50:42;;;;;;;59.42;26.10;;;-3.20;1.00;;;;;;4392273;28;658265;-65
2023/02/28 01:53:32;;;;;;;43.80;16.70;;;-3.10;1.00;;;;;;4418500;28;657124;-65
2023/02/28 01:56:23;;;;;;;30.53;12.83;;;-3.00;1.00;;;;;;4389811;28;657829;-65
2023/02/28 01:59:11;;;;;;;22.97;9.90;;;-3.00;1.00;;;;;;4387615;28;657889;-65
2023/02/28 02:01:58;;;;;;;21.87;9.90;;;-3.00;1.00;;;;;;4412413;28;657940;-65
2023/02/28 02:04:51;;;;;;;22.52;9.68;;;-3.00;1.00;;;;;;4402465;28;656521;-65
2023/02/28 02:07:38;;;;;;;18.27;8.30;;;-3.00;1.00;;;;;;4395372;28;657102;-65
2023/02/28 02:10:28;;;;;;;38.27;13.80;;;-3.00;1.00;;;;;;4390781;28;656542;-65
2023/02/28 02:13:24;;;;;;;32.00;14.32;;;-3.00;1.00;;;;;;4395090;28;657659;-65
2023/02/28 02:16:22;;;;;;;27.07;11.17;;;-3.00;1.00;;;;;;4394684;28;658532;-65
2023/02/28 02:19:17;;;;;;;32.00;12.30;;;-3.00;1.00;;;;;;4388563;28;657410;-65
2023/02/28 02:22:15;;;;;;;26.17;10.97;;;-3.00;1.00;;;;;;4392074;28;657692;-65
2023/02/28 02:25:12;;;;;;;31.90;12.23;;;-3.00;1.00;;;;;;4368845;28;657955;-65
2023/02/28 02:28:21;;;;;;;19.48;8.82;;;-3.00;1.00;;;;;;4390552;28;657826;-65
2023/02/28 02:31:43;;;;;;;18.53;8.43;;;-3.00;1.00;;;;;;4384133;28;657390;-65
2023/02/28 02:34:45;;;;;;;22.33;9.73;;;-3.10;1.00;;;;;;4364528;28;657032;-65
2023/02/28 02:37:35;;;;;;;19.00;8.93;;;-3.10;1.00;;;;;;4386149;28;656954;-65
2023/02/28 02:40:24;;;;;;;20.43;9.20;;;-3.20;1.00;;;;;;4388941;28;656811;-65
2023/02/28 02:43:14;;;;;;;15.10;7.90;;;-3.20;1.00;;;;;;4397128;28;657154;-65
2023/02/28 02:46:05;;;;;;;17.57;7.93;;;-3.20;1.00;;;;;;4393487;28;656579;-65
2023/02/28 02:48:52;;;;;;;18.87;8.30;;;-3.30;1.00;;;;;;4386615;28;657611;-65
2023/02/28 02:51:41;;;;;;;19.60;8.80;;;-3.30;1.00;;;;;;4409480;28;656435;-65
2023/02/28 02:54:29;;;;;;;19.00;8.63;;;-3.40;1.00;;;;;;4260518;28;657153;-65
2023/02/28 02:57:25;;;;;;;19.97;8.07;;;-3.50;1.00;;;;;;4258326;28;656588;-65
2023/02/28 03:00:13;;;;;;;20.57;8.80;;;-3.50;1.00;;;;;;4266928;28;656609;-65
2023/02/28 03:03:01;;;;;;;21.48;8.48;;;-3.60;1.00;;;;;;4359596;28;656549;-65
2023/02/28 03:05:48;;;;;;;23.90;9.37;;;-3.70;1.00;;;;;;4409895;28;656752;-65
2023/02/28 03:08:38;;;;;;;26.73;11.23;;;-3.70;1.00;;;;;;4386307;28;656990;-65
2023/02/28 03:11:25;;;;;;;29.83;13.00;;;-3.80;1.00;;;;;;4395972;28;658048;-65
2023/02/28 03:14:34;;;;;;;29.57;13.13;;;-3.90;1.00;;;;;;4408580;28;659195;-65
2023/02/28 03:17:46;;;;;;;23.15;10.05;;;-3.90;1.00;;;;;;4363305;28;658094;-65
2023/02/28 03:20:38;;;;;;;25.55;12.57;;;-4.00;1.00;;;;;;4387837;28;658002;-64
2023/02/28 03:23:29;;;;;;;23.33;11.07;;;-4.10;1.00;;;;;;4362327;28;657824;-64
2023/02/28 03:26:21;;;;;;;22.38;10.75;;;-4.10;1.00;;;;;;4392678;28;658344;-65
2023/02/28 03:29:12;;;;;;;31.53;13.23;;;-4.20;1.00;;;;;;4395713;28;658143;-64
2023/02/28 03:32:00;;;;;;;28.93;13.00;;;-4.20;1.00;;;;;;4389969;28;657631;-64
2023/02/28 03:34:49;;;;;;;24.07;10.53;;;-4.30;1.00;;;;;;4382139;28;657728;-64
2023/02/28 03:37:37;;;;;;;20.67;9.05;;;-4.40;1.00;;;;;;4390141;28;658929;-65
2023/02/28 03:40:26;;;;;;;22.13;8.77;;;-4.40;1.00;;;;;;4412353;28;657799;-64
2023/02/28 03:43:17;;;;;;;21.13;8.73;;;-4.50;1.00;;;;;;4387125;28;657066;-65
2023/02/28 03:46:06;;;;;;;19.37;7.97;;;-4.60;1.00;;;;;;4394457;28;656549;-64
2023/02/28 03:48:56;;;;;;;18.43;7.93;;;-4.60;1.00;;;;;;4393765;28;656974;-64
2023/02/28 03:51:43;;;;;;;25.40;8.60;;;-4.70;6.00;;;;;;4383196;28;657055;-64
2023/02/28 03:54:32;;;;;;;20.58;9.10;;;-4.70;20.30;;;;;;4390073;28;656536;-64
2023/02/28 03:57:23;;;;;;;23.10;9.23;;;-4.70;30.20;;;;;;4408028;28;657743;-64
2023/02/28 04:00:15;;;;;;;29.00;13.33;;;-4.80;59.80;;;;;;4373060;28;658481;-65
2023/02/28 04:03:02;;;;;;;36.70;15.23;;;-4.90;92.50;;;;;;4385568;28;659328;-64
2023/02/28 04:05:52;;;;;;;42.00;15.47;;;-4.90;93.70;;;;;;4408359;28;659047;-64
2023/02/28 04:08:39;;;;;;;30.20;13.53;;;-5.00;99.90;;;;;;4404352;28;658905;-64
2023/02/28 04:11:29;;;;;;;27.50;11.73;;;-5.00;99.90;;;;;;4383265;28;658870;-64
2023/02/28 04:14:17;;;;;;;33.20;14.53;;;-5.10;99.90;;;;;;4390613;28;659472;-64
2023/02/28 04:17:05;;;;;;;34.43;13.90;;;-5.10;99.90;;;;;;4413841;28;658989;-64
2023/02/28 04:19:53;;;;;;;34.80;14.93;;;-5.20;99.90;;;;;;4389430;28;659733;-64
2023/02/28 04:22:41;;;;;;;54.37;24.53;;;-5.30;99.90;;;;;;4373331;28;658379;-64
2023/02/28 04:25:28;;;;;;;50.43;23.80;;;-5.30;99.90;;;;;;4413011;28;659901;-64
2023/02/28 04:28:15;;;;;;;35.10;15.27;;;-5.40;99.90;;;;;;4391296;28;658523;-64
2023/02/28 04:31:03;;;;;;;28.90;11.77;;;-5.40;99.90;;;;;;4410085;28;659228;-67
2023/02/28 04:33:52;;;;;;;22.17;10.13;;;-5.40;99.90;;;;;;4387965;28;658419;-65
2023/02/28 04:36:39;;;;;;;23.63;9.10;;;-5.50;1.00;;;;;;4405171;28;658211;-64
2023/02/28 04:39:26;;;;;;;24.87;9.07;;;-5.50;1.00;;;;;;4389223;28;656496;-64
2023/02/28 04:42:14;;;;;;;20.73;8.83;;;-5.60;1.00;;;;;;4407455;28;657316;-67
2023/02/28 04:45:01;;;;;;;23.83;8.47;;;-5.60;1.00;;;;;;4393367;28;656447;-67
2023/02/28 04:47:48;;;;;;;23.03;8.63;;;-5.70;1.00;;;;;;4405263;28;657608;-67
2023/02/28 04:50:37;;;;;;;19.20;8.60;;;-5.70;1.00;;;;;;4388950;28;656572;-67
2023/02/28 04:53:24;;;;;;;17.23;8.27;;;-5.70;1.00;;;;;;4414169;28;656618;-67
2023/02/28 04:56:12;;;;;;;25.30;9.43;;;-5.70;1.00;;;;;;4392038;28;656810;-67
2023/02/28 04:58:59;;;;;;;21.33;10.27;;;-5.80;1.00;;;;;;4404737;28;656911;-67
2023/02/28 05:01:47;;;;;;;22.83;9.70;;;-5.80;1.00;;;;;;4385940;28;658596;-67
2023/02/28 05:04:35;;;;;;;23.63;9.80;;;-5.80;1.00;;;;;;4417039;28;655622;-67
2023/02/28 05:07:23;;;;;;;22.03;9.60;;;-5.80;25.70;;;;;;4393737;28;657863;-67
2023/02/28 05:10:12;;;;;;;26.03;9.03;;;-5.90;76.80;;;;;;4386987;28;657684;-67
2023/02/28 05:12:59;;;;;;;18.70;9.57;;;-5.90;99.90;;;;;;4410520;28;658189;-67
2023/02/28 05:15:46;;;;;;;29.07;13.30;;;-5.90;99.90;;;;;;4388017;28;659642;-67
2023/02/28 05:18:33;;;;;;;41.33;17.90;;;-6.00;99.90;;;;;;4409666;28;659437;-67
2023/02/28 05:21:28;;;;;;;46.77;19.50;;;-5.90;99.90;;;;;;4391204;28;659771;-67
2023/02/28 05:24:22;;;;;;;39.30;16.80;;;-5.90;1.00;;;;;;4373103;28;659227;-67
2023/02/28 05:27:09;;;;;;;30.03;13.37;;;-5.90;1.00;;;;;;4394541;28;658887;-67
2023/02/28 05:29:56;;;;;;;31.47;12.87;;;-5.90;1.00;;;;;;4397159;28;657761;-67
2023/02/28 05:32:44;;;;;;;35.67;15.30;;;-5.80;26.30;;;;;;4402963;28;657779;-67
2023/02/28 05:35:31;;;;;;;36.43;15.10;;;-5.90;99.90;;;;;;4391171;28;658598;-67
2023/02/28 05:38:18;;;;;;;31.80;15.03;;;-5.90;99.90;;;;;;4410839;28;659090;-67
2023/02/28 05:41:10;;;;;;;30.47;14.77;;;-5.90;1.00;;;;;;4389186;28;658594;-67
2023/02/28 05:43:59;;;;;;;35.30;14.27;;;-5.80;99.90;;;;;;4397426;28;657815;-67
2023/02/28 05:46:46;;;;;;;34.33;14.77;;;-5.80;1.00;;;;;;4392091;28;658833;-67
2023/02/28 05:49:34;;;;;;;133.50;28.20;;;-5.80;1.00;;;;;;4410836;28;658266;-67
2023/02/28 05:52:21;;;;;;;134.60;29.77;;;-5.80;1.00;;;;;;4399143;28;659645;-67
2023/02/28 05:55:09;;;;;;;51.70;17.30;;;-5.70;1.00;;;;;;4412565;28;659497;-67
2023/02/28 05:57:58;;;;;;;185.23;43.30;;;-5.60;99.90;;;;;;4390336;28;657994;-67
2023/02/28 06:00:45;;;;;;;150.27;39.77;;;-5.60;99.90;;;;;;4388023;28;660257;-67
2023/02/28 06:03:33;;;;;;;75.47;25.17;;;-5.40;1.00;;;;;;4406271;28;660895;-67
2023/02/28 06:06:20;;;;;;;69.13;24.90;;;-5.30;1.00;;;;;;4408303;28;657826;-67
2023/02/28 06:09:08;;;;;;;42.87;17.50;;;-5.20;1.00;;;;;;4411880;28;658310;-67
2023/02/28 06:11:55;;;;;;;35.70;15.30;;;-5.00;1.00;;;;;;4406899;28;657171;-67
2023/02/28 06:14:44;;;;;;;33.47;16.03;;;-4.80;99.90;;;;;;4412374;28;658184;-74
2023/02/28 06:17:31;;;;;;;131.73;36.47;;;-4.60;99.90;;;;;;4375228;28;659284;-72
2023/02/28 06:20:18;;;;;;;62.07;23.43;;;-4.30;99.90;;;;;;4389415;28;659759;-72
2023/02/28 06:23:06;;;;;;;41.00;19.90;;;-4.00;99.90;;;;;;4369438;28;659154;-72
2023/02/28 06:25:57;;;;;;;48.20;21.07;;;-3.80;1.00;;;;;;4397764;28;659732;-73
2023/02/28 06:28:44;;;;;;;39.35;15.23;;;-3.60;1.00;;;;;;4367759;28;657661;-73
2023/02/28 06:31:33;;;;;;;38.37;15.83;;;-3.40;99.90;;;;;;4375635;28;658430;-72
2023/02/28 06:34:20;;;;;;;42.47;16.80;;;-3.30;1.00;;;;;;4373072;28;658454;-71
2023/02/28 06:37:07;;;;;;;65.10;26.23;;;-3.10;99.90;;;;;;4377135;28;658261;-74
2023/02/28 06:39:56;;;;;;;31.63;14.73;;;-2.90;1.00;;;;;;4394042;28;658178;-72
2023/02/28 06:42:43;;;;;;;27.57;13.03;;;-2.80;1.00;;;;;;4395721;28;658329;-72
2023/02/28 06:45:30;;;;;;;28.58;12.40;;;-2.60;1.00;;;;;;4370053;28;658311;-72
2023/02/28 06:48:19;;;;;;;32.83;13.63;;;-2.40;1.00;;;;;;4404230;28;658025;-72
2023/02/28 06:51:09;;;;;;;33.83;13.87;;;-2.30;99.90;;;;;;4367585;28;658005;-72
2023/02/28 06:53:56;;;;;;;33.70;14.27;;;-2.20;99.90;;;;;;4376469;28;658406;-72
2023/02/28 06:56:44;;;;;;;34.80;14.30;;;-2.20;99.90;;;;;;4385171;28;659221;-73
2023/02/28 06:59:31;;;;;;;35.47;13.80;;;-2.10;99.90;;;;;;4374147;28;658537;-73
2023/02/28 07:02:18;;;;;;;31.00;14.10;;;-2.10;99.90;;;;;;4371510;28;658703;-72
2023/02/28 07:05:07;;;;;;;30.70;13.67;;;-2.00;99.90;;;;;;4389756;28;659446;-72
2023/02/28 07:07:56;;;;;;;35.13;15.23;;;-2.00;99.90;;;;;;4420249;28;658527;-72
2023/02/28 07:10:44;;;;;;;38.20;14.17;;;-1.90;99.90;;;;;;4418844;28;658648;-72
2023/02/28 07:13:31;;;;;;;33.83;13.37;;;-1.90;99.90;;;;;;4403931;28;659170;-72
2023/02/28 07:16:18;;;;;;;56.07;18.93;;;-1.90;99.90;;;;;;4428062;28;658998;-72
2023/02/28 07:19:05;;;;;;;62.17;22.87;;;-1.90;99.90;;;;;;4404107;28;659564;-72
2023/02/28 07:21:54;;;;;;;40.80;16.00;;;-1.90;99.90;;;;;;4422037;28;659632;-72
2023/02/28 07:24:41;;;;;;;28.27;11.60;;;-1.80;99.90;;;;;;4402911;28;658301;-73
2023/02/28 07:27:28;;;;;;;36.97;15.23;;;-1.80;99.90;;;;;;4423292;28;659365;-72
2023/02/28 07:30:16;;;;;;;46.47;21.47;;;-1.70;99.90;;;;;;4402315;28;659218;-72
2023/02/28 07:33:03;;;;;;;63.70;21.40;;;-1.70;99.90;;;;;;4422433;28;659908;-72
2023/02/28 07:35:51;;;;;;;100.03;27.10;;;-1.70;99.90;;;;;;4402789;28;659094;-72
2023/02/28 07:38:39;;;;;;;97.70;29.07;;;-1.50;99.90;;;;;;4419905;28;660239;-72
2023/02/28 07:41:27;;;;;;;98.43;33.23;;;-1.30;99.90;;;;;;4403860;28;659161;-72
2023/02/28 07:44:14;;;;;;;44.10;17.93;;;-1.10;99.90;;;;;;4429155;28;658664;-73
2023/02/28 07:47:02;;;;;;;38.83;15.43;;;-0.90;99.90;;;;;;4404725;28;659138;-72
2023/02/28 07:49:49;;;;;;;34.17;15.30;;;-0.90;99.90;;;;;;4427197;28;658222;-72
2023/02/28 07:52:37;;;;;;;29.70;14.40;;;-0.80;99.90;;;;;;4400761;28;659422;-72
2023/02/28 07:55:26;;;;;;;38.40;16.13;;;-0.80;99.90;;;;;;4425397;28;659698;-72
2023/02/28 07:58:13;;;;;;;27.30;12.63;;;-0.70;99.90;;;;;;4399197;28;659866;-72
2023/02/28 08:01:06;;;;;;;29.42;12.90;;;-0.60;99.90;;;;;;4401158;28;658833;-72
2023/02/28 08:03:54;;;;;;;31.73;13.50;;;-0.70;99.90;;;;;;4397816;28;660003;-72
2023/02/28 08:06:41;;;;;;;39.17;18.80;;;-0.70;99.90;;;;;;4396960;28;658942;-72
2023/02/28 08:09:29;;;;;;;38.73;15.50;;;-0.60;99.90;;;;;;4421154;28;659610;-72
2023/02/28 08:12:18;;;;;;;57.87;22.43;;;-0.60;99.90;;;;;;4403796;28;659187;-72
2023/02/28 08:15:06;;;;;;;35.80;15.07;;;-0.50;99.90;;;;;;4405212;28;659689;-72
2023/02/28 08:17:55;;;;;;;34.90;14.70;;;-0.40;99.90;;;;;;4419426;28;659021;-73
2023/02/28 08:20:43;;;;;;;34.87;14.77;;;-0.30;99.90;;;;;;4394581;28;659035;-72
2023/02/28 08:23:30;;;;;;;37.33;15.10;;;-0.20;99.90;;;;;;4409857;28;658442;-72
2023/02/28 08:26:18;;;;;;;32.23;13.80;;;-0.10;99.90;;;;;;4424215;28;658729;-73
2023/02/28 08:29:07;;;;;;;37.27;15.10;;;-0.10;99.90;;;;;;4417539;28;659031;-72
2023/02/28 08:31:54;;;;;;;40.17;18.60;;;0.00;99.90;;;;;;4425492;28;659031;-72
2023/02/28 08:34:41;;;;;;;34.67;14.83;;;0.10;99.90;;;;;;4404476;28;657284;-71
2023/02/28 08:37:28;;;;;;;36.13;16.48;;;0.20;99.90;;;;;;4425876;28;658700;-72
2023/02/28 08:40:17;;;;;;;30.20;14.83;;;0.40;99.90;;;;;;4407213;28;657853;-72
2023/02/28 08:43:05;;;;;;;33.77;15.90;;;0.60;99.90;;;;;;4420509;28;657114;-73
2023/02/28 08:45:56;;;;;;;36.27;16.17;;;0.80;99.90;;;;;;4430844;28;657628;-72
2023/02/28 08:48:43;;;;;;;36.40;16.43;;;1.00;99.90;;;;;;4399005;28;658208;-72
2023/02/28 08:51:30;;;;;;;34.77;16.43;;;1.20;99.90;;;;;;4403855;28;657674;-73
2023/02/28 08:54:19;;;;;;;36.43;16.30;;;1.50;99.90;;;;;;4427169;28;658238;-73
2023/02/28 08:57:06;;;;;;;25.90;11.53;;;1.50;99.90;;;;;;4411811;28;657714;-73
2023/02/28 08:59:53;;;;;;;29.77;11.07;;;1.60;99.90;;;;;;4389266;28;657793;-72
2023/02/28 09:02:43;;;;;;;33.53;13.10;;;1.60;99.90;;;;;;4301443;28;657499;-72
2023/02/28 09:05:30;;;;;;;20.03;9.13;;;1.70;99.90;;;;;;4274778;28;657672;-72
2023/02/28 09:08:18;;;;;;;20.63;8.43;;;1.60;99.90;;;;;;4335452;28;656824;-73
2023/02/28 09:11:05;;;;;;;24.13;9.10;;;1.40;99.90;;;;;;4418769;28;656704;-73
2023/02/28 09:13:52;;;;;;;18.83;8.40;;;1.40;99.90;;;;;;4431010;28;656773;-73
2023/02/28 09:16:40;;;;;;;19.53;8.90;;;1.40;99.90;;;;;;4424487;28;657062;-73
2023/02/28 09:19:29;;;;;;;22.43;9.50;;;1.50;99.90;;;;;;4423758;28;656945;-74
2023/02/28 09:22:16;;;;;;;16.10;7.43;;;1.70;99.90;;;;;;4407061;28;657229;-73
2023/02/28 09:25:04;;;;;;;15.70;7.13;;;1.70;99.90;;;;;;4427360;28;657719;-73
2023/02/28 09:27:51;;;;;;;18.30;7.70;;;1.70;99.90;;;;;;4401398;28;656527;-72
2023/02/28 09:30:38;;;;;;;16.13;7.63;;;1.50;99.90;;;;;;4429017;28;656775;-73
2023/02/28 09:33:26;;;;;;;12.23;6.57;;;1.90;99.90;;;;;;4411620;28;656612;-73
2023/02/28 09:36:14;;;;;;;15.77;7.80;;;2.40;99.90;;;;;;4429629;28;657844;-73
2023/02/28 09:39:03;;;;;;;22.33;9.17;;;2.90;99.90;;;;;;4408246;28;657975;-72
2023/02/28 09:41:52;;;;;;;17.13;7.50;;;3.40;99.90;;;;;;4416544;28;656611;-73
2023/02/28 09:44:40;;;;;;;15.00;7.37;;;3.80;99.90;;;;;;4432921;28;656689;-73
2023/02/28 09:47:30;;;;;;;19.67;8.23;;;4.30;99.90;;;;;;4406300;28;657436;-73
2023/02/28 09:50:21;;;;;;;20.50;8.43;;;4.90;99.90;;;;;;4408440;28;657037;-73
2023/02/28 09:53:14;;;;;;;17.40;8.33;;;5.40;99.90;;;;;;4407701;28;656946;-73
2023/02/28 09:56:03;;;;;;;18.70;8.43;;;5.90;99.90;;;;;;4383744;28;656701;-73
2023/02/28 09:58:53;;;;;;;19.17;8.03;;;5.80;99.90;;;;;;4401473;28;656522;-73
2023/02/28 10:01:42;;;;;;;20.33;9.83;;;5.90;99.90;;;;;;4416297;28;656407;-72
2023/02/28 10:04:38;;;;;;;19.13;8.57;;;5.30;99.90;;;;;;4412511;28;656748;-73
2023/02/28 10:07:37;;;;;;;16.90;8.40;;;5.10;99.90;;;;;;4390249;28;656832;-72
2023/02/28 10:10:29;;;;;;;19.40;8.80;;;5.10;99.90;;;;;;4401522;28;657539;-73
2023/02/28 10:13:21;;;;;;;16.87;8.93;;;5.20;99.90;;;;;;4388979;28;657922;-72
2023/02/28 10:16:11;;;;;;;17.80;8.40;;;5.40;99.90;;;;;;4405273;28;656660;-73
2023/02/28 10:19:00;;;;;;;17.10;7.90;;;6.10;99.90;;;;;;4400256;28;656853;-72
2023/02/28 10:21:50;;;;;;;14.73;7.90;;;6.40;99.90;;;;;;4402030;28;656806;-72
2023/02/28 10:24:39;;;;;;;14.90;7.67;;;6.50;99.90;;;;;;4401824;28;656962;-73
2023/02/28 10:27:30;;;;;;;16.23;7.40;;;7.10;99.90;;;;;;4409895;28;656821;-73
2023/02/28 10:30:18;;;;;;;16.77;7.50;;;7.50;99.90;;;;;;4409175;28;657284;-74
2023/02/28 10:33:05;;;;;;;14.17;7.97;;;7.80;99.90;;;;;;4418972;28;656507;-72
2023/02/28 10:35:53;;;;;;;16.90;7.17;;;7.30;99.90;;;;;;4433792;28;657817;-74
2023/02/28 10:38:40;;;;;;;23.10;10.57;;;6.90;99.90;;;;;;4409550;28;657196;-73
2023/02/28 10:41:29;;;;;;;17.87;8.93;;;6.90;99.90;;;;;;4424794;28;658286;-73
2023/02/28 10:44:22;;;;;;;37.03;12.77;;;6.60;99.90;;;;;;4414147;28;656838;-72
2023/02/28 10:47:15;;;;;;;20.67;8.97;;;6.90;99.90;;;;;;4403885;28;658617;-73
2023/02/28 10:50:02;;;;;;;12.07;7.20;;;6.90;99.90;;;;;;4399864;28;657073;-71
2023/02/28 10:52:49;;;;;;;36.17;15.13;;;7.20;99.90;;;;;;4433939;28;657242;-72
2023/02/28 10:55:37;;;;;;;44.20;15.47;;;7.50;99.90;;;;;;4402597;28;657592;-72
2023/02/28 10:58:25;;;;;;;16.73;7.30;;;7.70;99.90;;;;;;4425549;28;657971;-73
2023/02/28 11:01:16;;;;;;;16.10;8.17;;;8.20;99.90;;;;;;4406406;28;656652;-72
2023/02/28 11:04:03;;;;;;;67.13;18.63;;;8.80;99.90;;;;;;4405346;28;657601;-72
2023/02/28 11:06:58;;;;;;;15.57;7.70;;;9.10;99.90;;;;;;4406589;28;657717;-72
2023/02/28 11:09:47;;;;;;;15.80;7.60;;;8.50;99.90;;;;;;4421795;28;656709;-73
2023/02/28 11:12:37;;;;;;;40.80;14.53;;;8.80;99.90;;;;;;4428967;28;656996;-72
2023/02/28 11:15:27;;;;;;;17.92;8.85;;;8.80;99.90;;;;;;4381202;28;657621;-73
2023/02/28 11:18:25;;;;;;;16.53;7.57;;;8.60;99.90;;;;;;4430302;28;656903;-73
2023/02/28 11:21:17;;;;;;;16.07;7.50;;;8.80;99.90;;;;;;4402858;28;657294;-72
2023/02/28 11:24:06;;;;;;;15.23;7.97;;;8.20;99.90;;;;;;4425353;28;656349;-71
2023/02/28 11:26:54;;;;;;;30.38;11.15;;;8.60;99.90;;;;;;4407461;28;657031;-71
2023/02/28 11:29:47;;;;;;;20.40;9.47;;;8.80;99.90;;;;;;4405379;28;657781;-72
2023/02/28 11:32:34;;;;;;;15.03;7.47;;;8.90;99.90;;;;;;4409157;28;657311;-72
2023/02/28 11:35:25;;;;;;;14.47;7.53;;;9.30;99.90;;;;;;4409141;28;656130;-73
2023/02/28 11:38:13;;;;;;;14.57;7.63;;;8.00;99.90;;;;;;4403342;28;656507;-72
2023/02/28 11:41:10;;;;;;;15.87;6.90;;;7.20;99.90;;;;;;4408677;28;656643;-72
2023/02/28 11:44:09;;;;;;;26.17;12.87;;;7.60;99.90;;;;;;4407372;28;656550;-72
2023/02/28 11:46:59;;;;;;;15.53;8.47;;;7.80;99.90;;;;;;4381036;28;658044;-72
2023/02/28 11:49:50;;;;;;;17.43;7.33;;;7.90;99.90;;;;;;4409266;28;657493;-74
2023/02/28 11:52:41;;;;;;;12.20;7.20;;;8.50;99.90;;;;;;4403506;28;657817;-73
2023/02/28 11:55:29;;;;;;;14.35;7.25;;;9.00;99.90;;;;;;4409575;28;656976;-73
2023/02/28 11:58:40;;;;;;;13.53;7.83;;;9.00;99.90;;;;;;4409811;28;656704;-72
2023/02/28 12:01:34;;;;;;;16.63;8.47;;;9.30;99.90;;;;;;4402252;28;656424;-72
2023/02/28 12:04:26;;;;;;;17.47;7.23;;;9.40;99.90;;;;;;4376610;28;656725;-72
2023/02/28 12:07:16;;;;;;;12.53;7.83;;;10.10;99.90;;;;;;4398967;28;657073;-72
2023/02/28 12:10:08;;;;;;;12.53;7.83;;;10.70;99.90;;;;;;4405755;28;658711;-70
2023/02/28 12:13:05;;;;;;;16.77;7.77;;;10.90;99.90;;;;;;4405326;28;657992;-72
2023/02/28 12:16:09;;;;;;;13.63;7.53;;;11.20;99.90;;;;;;4382795;28;658118;-72
2023/02/28 12:19:04;;;;;;;21.65;10.50;;;10.60;99.90;;;;;;4378104;28;658286;-72
2023/02/28 12:22:22;;;;;;;14.07;7.30;;;10.20;99.90;;;;;;4381416;28;660233;-75
2023/02/28 12:25:43;;;;;;;35.57;12.90;;;10.40;99.90;;;;;;4405020;28;657927;-75
2023/02/28 12:28:32;;;;;;;28.07;11.10;;;10.30;99.90;;;;;;4385372;28;658977;-72
2023/02/28 12:31:22;;;;;;;13.57;8.07;;;10.50;99.90;;;;;;4426426;28;658657;-72
2023/02/28 12:34:12;;;;;;;34.00;14.40;;;10.80;99.90;;;;;;4434170;28;657886;-74
2023/02/28 12:37:00;;;;;;;28.17;10.70;;;10.90;99.90;;;;;;4405172;28;659388;-72
2023/02/28 12:39:48;;;;;;;15.13;8.83;;;11.20;99.90;;;;;;4402094;28;659246;-72
2023/02/28 12:42:39;;;;;;;16.20;7.73;;;11.30;99.90;;;;;;4401921;28;658272;-72
2023/02/28 12:45:28;;;;;;;14.67;8.23;;;11.60;99.90;;;;;;4406542;28;658332;-71
2023/02/28 12:48:19;;;;;;;14.57;8.60;;;12.10;99.90;;;;;;4407500;28;658049;-71
2023/02/28 12:51:06;;;;;;;16.20;8.57;;;12.60;99.90;;;;;;4404623;28;657565;-71
2023/02/28 12:53:59;;;;;;;18.27;8.80;;;12.00;99.90;;;;;;4428011;28;657465;-72
2023/02/28 12:56:49;;;;;;;24.97;10.87;;;11.90;99.90;;;;;;4402539;28;657668;-72
2023/02/28 12:59:39;;;;;;;19.70;8.63;;;11.80;99.90;;;;;;4402279;28;659499;-72
2023/02/28 13:02:52;;;;;;;32.47;11.63;;;12.30;99.90;;;;;;4402180;28;657226;-72
2023/02/28 13:06:17;;;;;;;18.27;9.10;;;11.80;99.90;;;;;;4371262;28;658484;-71
2023/02/28 13:09:10;;;;;;;16.73;7.90;;;11.80;99.90;;;;;;4370493;28;657629;-71
2023/02/28 13:11:57;;;;;;;51.23;18.83;;;11.70;99.90;;;;;;4372680;28;657815;-72
2023/02/28 13:14:47;;;;;;;24.80;9.80;;;11.80;99.90;;;;;;4384131;28;658566;-72
2023/02/28 13:17:34;;;;;;;18.13;9.20;;;11.70;99.90;;;;;;4390672;28;658002;-71
2023/02/28 13:20:22;;;;;;;16.33;8.30;;;11.30;99.90;;;;;;4373729;28;657372;-71
2023/02/28 13:23:32;;;;;;;14.30;8.65;;;11.70;99.90;;;;;;4390223;28;657668;-71
2023/02/28 13:26:19;;;;;;;36.70;17.00;;;12.10;99.90;;;;;;4367219;28;657964;-71
2023/02/28 13:29:23;;;;;;;19.20;9.23;;;12.00;99.90;;;;;;4372300;28;659118;-71
2023/02/28 13:32:39;;;;;;;21.27;11.23;;;12.90;99.90;;;;;;4358288;28;657874;-71
2023/02/28 13:35:45;;;;;;;15.70;9.03;;;13.10;99.90;;;;;;4378444;28;658294;-71
2023/02/28 13:38:37;;;;;;;25.07;10.50;;;13.40;99.90;;;;;;4348606;28;657935;-74
2023/02/28 13:41:52;;;;;;;55.33;18.43;;;13.20;99.90;;;;;;4369212;28;658714;-71
2023/02/28 13:45:13;;;;;;;29.23;13.07;;;13.30;99.90;;;;;;4371442;28;658664;-72
2023/02/28 13:48:02;;;;;;;17.20;9.20;;;14.30;99.90;;;;;;4361422;28;658795;-72
2023/02/28 13:50:49;;;;;;;17.33;9.02;;;15.20;99.90;;;;;;4390361;28;657732;-72
2023/02/28 13:53:55;;;;;;;19.47;9.50;;;16.40;99.90;;;;;;4372603;28;658883;-71
2023/02/28 13:56:45;;;;;;;21.33;10.57;;;16.20;99.90;;;;;;4350052;28;657802;-71
2023/02/28 13:59:35;;;;;;;17.73;8.97;;;16.90;99.90;;;;;;4374140;28;658897;-71
2023/02/28 14:02:45;;;;;;;14.60;8.50;;;17.80;99.90;;;;;;4373093;28;658839;-71
2023/02/28 14:05:33;;;;;;;24.00;11.00;;;18.70;99.90;;;;;;4364046;28;658033;-71
2023/02/28 14:08:22;;;;;;;42.00;19.03;;;19.40;99.90;;;;;;4392960;28;658480;-71
2023/02/28 14:11:17;;;;;;;18.40;8.97;;;18.50;99.90;;;;;;4409340;28;658505;-71
2023/02/28 14:14:04;;;;;;;15.50;9.10;;;19.00;99.90;;;;;;4386744;28;658446;-71
2023/02/28 14:16:52;;;;;;;15.53;8.77;;;19.10;99.90;;;;;;4387505;28;657864;-71
2023/02/28 14:19:39;;;;;;;43.42;17.77;;;19.20;99.90;;;;;;4406285;28;657249;-71
2023/02/28 14:22:49;;;;;;;16.17;9.10;;;18.00;99.90;;;;;;4388234;28;658833;-70
2023/02/28 14:25:38;;;;;;;19.50;9.47;;;18.80;99.90;;;;;;4390913;28;657847;-71